Impacts TAF Board INFO
FOR SITUATIONAL AWARENESS. NOT TO BE USED FOR FLIGHT PLANNING PURPOSES.
IDs:

KLGA - New York/La Guardia, NY, US

Issued at 1120 UTC 19 Jun 2018
Updated at 1236 UTC 19 Jun 2018
Potential Impact None Slight Moderate High
Time<<20/13Z 20/14Z 20/15Z 20/16Z 20/17Z 20/18Z 20/19Z 20/20Z 20/21Z 20/22Z 20/23Z 21/00Z 21/01Z
Type PRVL PRVL PRVL PRVL PRVL
VIS >6 >6 >6 >6 >6
CIG -- -- -- -- --
Cover SCT SCT SCT SCT SCT
FltCat VFR VFR VFR VFR VFR
WX -- -- -- -- --
WDir 50 50 50 50 50
WSpd 6 6 6 6 6
WGst -- -- -- -- --

Raw TAF
KLGA 191120Z 1912/2018 32011G17KT P6SM BKN040
  FM191400 34012G18KT P6SM SCT040
  FM191600 35011G17KT P6SM FEW050 SCT250
  FM200100 01007KT P6SM FEW050 FEW250
  FM201100 05006KT P6SM FEW050 SCT150


METAR Board
Radar Display
Forecast Discussion

FOR SITUATIONAL AWARENESS. NOT TO BE USED FOR FLIGHT PLANNING PURPOSES.